Aérodrome :







RETROUVEZ-NOUS SUR...

 
LOGIN :

S'inscrire | Disclaimer

   EN    FR    IT 

 









Légende :    VFR   VFR Marginal   IFR   IFR Intensif   IFR Très Intensif
Visi : 
Plafond : 
>= 8 km
>= 3000ft
5 à 8 km
1000 à 3000 ft
1500m à 5 km
500 à 1000 ft
800 à 1500m
200 à 500 ft
< 800m
< 200 ft
Symboles :   Orages  Brouillard  Fortes neiges  Fortes précipitations  Vent > 20 kt






- Altitude de l'aérodrome : 90 ft
- Code IATA : YHU


CYHU - Montréal Saint-Hubert

DERNIER METAR :
  • 141200Z AUTO 02010KT 9SM OVC015 19/16 A2994 RMK SLP141 DENSITY ALT 500FT

METARs EXPIRÉS :
  • 141100Z AUTO 02007KT 9SM OVC011 19/16 A2994 RMK SLP138 DENSITY ALT 500FT
  • 141000Z AUTO 01006KT 9SM OVC013 18/17 A2992 RMK SLP133 DENSITY ALT 500FT
  • 140932Z AUTO 35006KT 9SM BKN018 18/17 A2991 RMK SLP130 DENSITY ALT 400FT

TAF TAF CYHU
Valide du 14 à 12h jusqu'au 15 à 12h UTC


141139Z 1412/1512 02010KT P6SM OVC012
TEMPO 1412/1415 SCT015 BKN050
PROB30 1412/1414 OVC009
FM141500 03015KT P6SM SCT020 BKN030
TEMPO 1415/1417 BKN020
FM142200 05012KT P6SM FEW040
BECMG 1501/1503 04008KT RMK FCST BASED ON AUTO OBS. NXT FCST BY 141800Z
FIR CZUL / Amérique du Nord



MET'MAP, la Météo Aéronautique d'un coup d'oeil ! - Copyright ORBIFLY Décembre 2007 - Disclaimer

ORBIFLY MET'MAP TEAM :

Programmation & Développement : Alexandra Zaïnal
Sur une idée originale de : Baudouin d'Aumeries
Assistance à la programmation : Marc-Olivier Méhu
Soutien technique & logistique : Manuel Goepfert

Contact : metmap@orbifly.com




SOURCES & CREDITS :

   NOAA